sensor_id;sensor_type;location;lat;lon;timestamp;P1;durP1;ratioP1;P2;durP2;ratioP2
18459;SDS011;9359;50.932;6.924;2023-11-21T00:02:15;89.97;;;38.40;;
18459;SDS011;9359;50.932;6.924;2023-11-21T00:04:43;87.00;;;37.47;;
18459;SDS011;9359;50.932;6.924;2023-11-21T00:07:13;91.53;;;38.43;;
18459;SDS011;9359;50.932;6.924;2023-11-21T00:09:44;80.27;;;37.33;;
18459;SDS011;9359;50.932;6.924;2023-11-21T00:12:12;88.67;;;37.00;;
18459;SDS011;9359;50.932;6.924;2023-11-21T00:14:42;82.63;;;35.57;;
18459;SDS011;9359;50.932;6.924;2023-11-21T00:17:11;86.30;;;37.30;;
18459;SDS011;9359;50.932;6.924;2023-11-21T00:19:39;89.80;;;36.70;;
18459;SDS011;9359;50.932;6.924;2023-11-21T00:22:08;85.33;;;36.93;;
18459;SDS011;9359;50.932;6.924;2023-11-21T00:24:38;85.77;;;36.10;;
18459;SDS011;9359;50.932;6.924;2023-11-21T00:27:08;88.73;;;36.37;;
18459;SDS011;9359;50.932;6.924;2023-11-21T00:29:37;82.17;;;35.70;;
18459;SDS011;9359;50.932;6.924;2023-11-21T00:32:06;84.20;;;36.57;;
18459;SDS011;9359;50.932;6.924;2023-11-21T00:34:34;79.47;;;35.23;;
18459;SDS011;9359;50.932;6.924;2023-11-21T00:37:05;82.17;;;35.97;;
18459;SDS011;9359;50.932;6.924;2023-11-21T00:39:34;83.43;;;37.37;;
18459;SDS011;9359;50.932;6.924;2023-11-21T00:42:03;84.77;;;36.33;;
18459;SDS011;9359;50.932;6.924;2023-11-21T00:44:34;83.67;;;38.13;;
18459;SDS011;9359;50.932;6.924;2023-11-21T00:47:03;88.40;;;37.57;;
18459;SDS011;9359;50.932;6.924;2023-11-21T00:49:32;90.03;;;37.70;;
18459;SDS011;9359;50.932;6.924;2023-11-21T00:52:00;89.70;;;38.90;;
18459;SDS011;9359;50.932;6.924;2023-11-21T00:54:29;88.07;;;37.53;;
18459;SDS011;9359;50.932;6.924;2023-11-21T00:56:57;92.73;;;38.70;;
18459;SDS011;9359;50.932;6.924;2023-11-21T00:59:26;83.97;;;38.30;;
18459;SDS011;9359;50.932;6.924;2023-11-21T01:01:57;99.90;;;40.07;;
18459;SDS011;9359;50.932;6.924;2023-11-21T01:04:27;91.63;;;39.83;;
18459;SDS011;9359;50.932;6.924;2023-11-21T01:06:56;85.23;;;38.03;;
18459;SDS011;9359;50.932;6.924;2023-11-21T01:09:24;87.10;;;39.07;;
18459;SDS011;9359;50.932;6.924;2023-11-21T01:11:53;82.60;;;37.50;;
18459;SDS011;9359;50.932;6.924;2023-11-21T01:14:22;88.50;;;40.23;;
18459;SDS011;9359;50.932;6.924;2023-11-21T01:16:52;94.60;;;40.70;;
18459;SDS011;9359;50.932;6.924;2023-11-21T01:19:22;103.03;;;41.93;;
18459;SDS011;9359;50.932;6.924;2023-11-21T01:21:50;98.73;;;42.40;;
18459;SDS011;9359;50.932;6.924;2023-11-21T01:24:19;94.87;;;42.27;;
18459;SDS011;9359;50.932;6.924;2023-11-21T01:26:47;97.60;;;40.77;;
18459;SDS011;9359;50.932;6.924;2023-11-21T01:29:16;85.73;;;39.30;;
18459;SDS011;9359;50.932;6.924;2023-11-21T01:31:45;89.80;;;40.80;;
18459;SDS011;9359;50.932;6.924;2023-11-21T01:34:14;96.43;;;39.53;;
18459;SDS011;9359;50.932;6.924;2023-11-21T01:36:44;85.43;;;39.43;;
18459;SDS011;9359;50.932;6.924;2023-11-21T01:39:12;96.07;;;41.33;;
18459;SDS011;9359;50.932;6.924;2023-11-21T01:41:41;98.17;;;40.80;;
18459;SDS011;9359;50.932;6.924;2023-11-21T01:44:11;94.13;;;41.67;;
18459;SDS011;9359;50.932;6.924;2023-11-21T01:46:39;99.27;;;40.27;;
18459;SDS011;9359;50.932;6.924;2023-11-21T01:49:09;89.50;;;41.47;;
18459;SDS011;9359;50.932;6.924;2023-11-21T01:51:39;87.53;;;40.43;;
18459;SDS011;9359;50.932;6.924;2023-11-21T01:54:09;87.20;;;40.10;;
18459;SDS011;9359;50.932;6.924;2023-11-21T01:56:39;92.07;;;40.13;;
18459;SDS011;9359;50.932;6.924;2023-11-21T01:59:07;100.20;;;42.20;;
18459;SDS011;9359;50.932;6.924;2023-11-21T02:01:36;97.03;;;43.50;;
18459;SDS011;9359;50.932;6.924;2023-11-21T02:04:05;95.00;;;42.40;;
18459;SDS011;9359;50.932;6.924;2023-11-21T02:06:34;101.67;;;42.60;;
18459;SDS011;9359;50.932;6.924;2023-11-21T02:09:02;98.67;;;41.37;;
18459;SDS011;9359;50.932;6.924;2023-11-21T02:11:33;93.00;;;39.97;;
18459;SDS011;9359;50.932;6.924;2023-11-21T02:14:04;98.70;;;42.50;;
18459;SDS011;9359;50.932;6.924;2023-11-21T02:16:35;85.50;;;37.23;;
18459;SDS011;9359;50.932;6.924;2023-11-21T02:19:03;77.03;;;34.77;;
18459;SDS011;9359;50.932;6.924;2023-11-21T02:21:36;84.13;;;35.33;;
18459;SDS011;9359;50.932;6.924;2023-11-21T02:24:08;87.37;;;37.23;;
18459;SDS011;9359;50.932;6.924;2023-11-21T02:26:37;77.00;;;34.43;;
18459;SDS011;9359;50.932;6.924;2023-11-21T02:29:06;86.20;;;35.43;;
18459;SDS011;9359;50.932;6.924;2023-11-21T02:31:37;95.30;;;39.13;;
18459;SDS011;9359;50.932;6.924;2023-11-21T02:34:13;101.50;;;40.70;;
18459;SDS011;9359;50.932;6.924;2023-11-21T02:36:42;97.80;;;42.57;;
18459;SDS011;9359;50.932;6.924;2023-11-21T02:39:13;103.37;;;41.70;;
18459;SDS011;9359;50.932;6.924;2023-11-21T02:41:42;100.23;;;41.37;;
18459;SDS011;9359;50.932;6.924;2023-11-21T02:44:10;100.13;;;43.90;;
18459;SDS011;9359;50.932;6.924;2023-11-21T02:46:39;97.67;;;43.40;;
18459;SDS011;9359;50.932;6.924;2023-11-21T02:49:08;111.63;;;45.17;;
18459;SDS011;9359;50.932;6.924;2023-11-21T02:51:39;103.10;;;41.47;;
18459;SDS011;9359;50.932;6.924;2023-11-21T02:54:07;107.67;;;44.07;;
18459;SDS011;9359;50.932;6.924;2023-11-21T02:56:39;105.77;;;44.97;;
18459;SDS011;9359;50.932;6.924;2023-11-21T02:59:07;96.93;;;43.33;;
18459;SDS011;9359;50.932;6.924;2023-11-21T03:01:36;88.73;;;40.10;;
18459;SDS011;9359;50.932;6.924;2023-11-21T03:04:04;97.67;;;41.50;;
18459;SDS011;9359;50.932;6.924;2023-11-21T03:06:33;97.13;;;40.23;;
18459;SDS011;9359;50.932;6.924;2023-11-21T03:09:01;88.47;;;40.33;;
18459;SDS011;9359;50.932;6.924;2023-11-21T03:11:32;86.77;;;40.27;;
18459;SDS011;9359;50.932;6.924;2023-11-21T03:16:45;94.13;;;40.93;;
18459;SDS011;9359;50.932;6.924;2023-11-21T03:19:13;95.43;;;39.67;;
18459;SDS011;9359;50.932;6.924;2023-11-21T03:21:42;93.43;;;39.53;;
18459;SDS011;9359;50.932;6.924;2023-11-21T03:24:11;92.43;;;39.73;;
18459;SDS011;9359;50.932;6.924;2023-11-21T03:26:44;91.67;;;39.83;;
18459;SDS011;9359;50.932;6.924;2023-11-21T03:29:13;84.90;;;37.83;;
18459;SDS011;9359;50.932;6.924;2023-11-21T03:31:41;103.10;;;40.87;;
18459;SDS011;9359;50.932;6.924;2023-11-21T03:34:15;86.77;;;38.90;;
18459;SDS011;9359;50.932;6.924;2023-11-21T03:36:45;94.27;;;40.27;;
18459;SDS011;9359;50.932;6.924;2023-11-21T03:39:13;94.90;;;40.63;;
18459;SDS011;9359;50.932;6.924;2023-11-21T03:41:42;89.40;;;40.87;;
18459;SDS011;9359;50.932;6.924;2023-11-21T03:44:10;90.10;;;39.10;;
18459;SDS011;9359;50.932;6.924;2023-11-21T03:46:39;83.10;;;37.37;;
18459;SDS011;9359;50.932;6.924;2023-11-21T03:49:07;93.13;;;38.70;;
18459;SDS011;9359;50.932;6.924;2023-11-21T03:51:38;91.60;;;39.77;;
18459;SDS011;9359;50.932;6.924;2023-11-21T03:54:06;95.50;;;39.47;;
18459;SDS011;9359;50.932;6.924;2023-11-21T03:56:35;87.47;;;39.73;;
18459;SDS011;9359;50.932;6.924;2023-11-21T03:59:03;86.13;;;37.20;;
18459;SDS011;9359;50.932;6.924;2023-11-21T04:01:34;81.20;;;35.17;;
18459;SDS011;9359;50.932;6.924;2023-11-21T04:04:03;90.03;;;38.63;;
18459;SDS011;9359;50.932;6.924;2023-11-21T04:06:32;100.87;;;40.77;;
18459;SDS011;9359;50.932;6.924;2023-11-21T04:09:03;100.57;;;42.13;;
18459;SDS011;9359;50.932;6.924;2023-11-21T04:11:31;99.63;;;43.17;;
18459;SDS011;9359;50.932;6.924;2023-11-21T04:14:00;92.43;;;40.97;;
18459;SDS011;9359;50.932;6.924;2023-11-21T04:16:28;97.17;;;40.27;;
18459;SDS011;9359;50.932;6.924;2023-11-21T04:18:57;92.20;;;41.63;;
18459;SDS011;9359;50.932;6.924;2023-11-21T04:21:25;94.17;;;39.77;;
18459;SDS011;9359;50.932;6.924;2023-11-21T04:23:54;84.27;;;37.07;;
18459;SDS011;9359;50.932;6.924;2023-11-21T04:26:24;79.17;;;35.17;;
18459;SDS011;9359;50.932;6.924;2023-11-21T04:28:53;74.20;;;33.43;;
18459;SDS011;9359;50.932;6.924;2023-11-21T04:31:21;76.90;;;34.47;;
18459;SDS011;9359;50.932;6.924;2023-11-21T04:33:50;76.47;;;34.00;;
18459;SDS011;9359;50.932;6.924;2023-11-21T04:36:19;79.47;;;34.63;;
18459;SDS011;9359;50.932;6.924;2023-11-21T04:38:48;82.63;;;34.30;;
18459;SDS011;9359;50.932;6.924;2023-11-21T04:41:16;67.67;;;32.27;;
18459;SDS011;9359;50.932;6.924;2023-11-21T04:43:47;70.83;;;32.07;;
18459;SDS011;9359;50.932;6.924;2023-11-21T04:46:16;65.23;;;30.50;;
18459;SDS011;9359;50.932;6.924;2023-11-21T04:48:44;62.10;;;30.03;;
18459;SDS011;9359;50.932;6.924;2023-11-21T04:51:13;82.57;;;31.40;;
18459;SDS011;9359;50.932;6.924;2023-11-21T04:53:42;62.47;;;28.10;;
18459;SDS011;9359;50.932;6.924;2023-11-21T04:56:11;74.33;;;29.37;;
18459;SDS011;9359;50.932;6.924;2023-11-21T04:58:41;62.10;;;28.63;;
18459;SDS011;9359;50.932;6.924;2023-11-21T05:01:11;65.67;;;29.03;;
18459;SDS011;9359;50.932;6.924;2023-11-21T05:03:40;62.03;;;28.70;;
18459;SDS011;9359;50.932;6.924;2023-11-21T05:06:09;59.63;;;28.43;;
18459;SDS011;9359;50.932;6.924;2023-11-21T05:08:38;60.17;;;28.10;;
18459;SDS011;9359;50.932;6.924;2023-11-21T05:11:06;65.27;;;30.13;;
18459;SDS011;9359;50.932;6.924;2023-11-21T05:13:36;69.63;;;29.07;;
18459;SDS011;9359;50.932;6.924;2023-11-21T05:16:05;65.77;;;28.80;;
18459;SDS011;9359;50.932;6.924;2023-11-21T05:18:35;66.73;;;28.70;;
18459;SDS011;9359;50.932;6.924;2023-11-21T05:21:06;72.60;;;29.33;;
18459;SDS011;9359;50.932;6.924;2023-11-21T05:23:35;73.57;;;28.73;;
18459;SDS011;9359;50.932;6.924;2023-11-21T05:26:03;62.53;;;27.13;;
18459;SDS011;9359;50.932;6.924;2023-11-21T05:28:32;59.97;;;26.40;;
18459;SDS011;9359;50.932;6.924;2023-11-21T05:31:01;58.17;;;26.43;;
18459;SDS011;9359;50.932;6.924;2023-11-21T05:33:29;55.63;;;26.17;;
18459;SDS011;9359;50.932;6.924;2023-11-21T05:36:00;52.43;;;23.20;;
18459;SDS011;9359;50.932;6.924;2023-11-21T05:38:29;56.17;;;25.50;;
18459;SDS011;9359;50.932;6.924;2023-11-21T05:40:57;52.73;;;25.57;;
18459;SDS011;9359;50.932;6.924;2023-11-21T05:43:26;56.23;;;24.73;;
18459;SDS011;9359;50.932;6.924;2023-11-21T05:45:58;49.57;;;23.17;;
18459;SDS011;9359;50.932;6.924;2023-11-21T05:48:26;46.93;;;21.80;;
18459;SDS011;9359;50.932;6.924;2023-11-21T05:50:56;46.27;;;22.20;;
18459;SDS011;9359;50.932;6.924;2023-11-21T05:53:29;47.73;;;21.43;;
18459;SDS011;9359;50.932;6.924;2023-11-21T05:55:59;44.27;;;21.33;;
18459;SDS011;9359;50.932;6.924;2023-11-21T05:58:29;52.17;;;22.03;;
18459;SDS011;9359;50.932;6.924;2023-11-21T06:00:57;53.77;;;25.40;;
18459;SDS011;9359;50.932;6.924;2023-11-21T06:03:26;49.30;;;23.80;;
18459;SDS011;9359;50.932;6.924;2023-11-21T06:05:54;54.30;;;23.60;;
18459;SDS011;9359;50.932;6.924;2023-11-21T06:08:23;48.97;;;22.30;;
18459;SDS011;9359;50.932;6.924;2023-11-21T06:10:54;51.60;;;22.30;;
18459;SDS011;9359;50.932;6.924;2023-11-21T06:13:22;50.23;;;23.00;;
18459;SDS011;9359;50.932;6.924;2023-11-21T06:15:51;45.60;;;20.43;;
18459;SDS011;9359;50.932;6.924;2023-11-21T06:18:21;52.00;;;23.33;;
18459;SDS011;9359;50.932;6.924;2023-11-21T06:20:49;46.57;;;21.57;;
18459;SDS011;9359;50.932;6.924;2023-11-21T06:23:18;52.73;;;23.50;;
18459;SDS011;9359;50.932;6.924;2023-11-21T06:25:47;51.53;;;22.77;;
18459;SDS011;9359;50.932;6.924;2023-11-21T06:28:17;50.53;;;22.13;;
18459;SDS011;9359;50.932;6.924;2023-11-21T06:30:46;66.27;;;22.30;;
18459;SDS011;9359;50.932;6.924;2023-11-21T06:33:14;45.70;;;21.33;;
18459;SDS011;9359;50.932;6.924;2023-11-21T06:35:43;52.07;;;22.47;;
18459;SDS011;9359;50.932;6.924;2023-11-21T06:38:11;50.30;;;22.90;;
18459;SDS011;9359;50.932;6.924;2023-11-21T06:40:40;47.20;;;21.93;;
18459;SDS011;9359;50.932;6.924;2023-11-21T06:43:10;52.27;;;23.70;;
18459;SDS011;9359;50.932;6.924;2023-11-21T06:45:41;55.53;;;22.60;;
18459;SDS011;9359;50.932;6.924;2023-11-21T06:48:10;47.17;;;21.90;;
18459;SDS011;9359;50.932;6.924;2023-11-21T06:50:39;55.10;;;24.23;;
18459;SDS011;9359;50.932;6.924;2023-11-21T06:53:08;52.93;;;24.37;;
18459;SDS011;9359;50.932;6.924;2023-11-21T06:55:36;52.43;;;24.53;;
18459;SDS011;9359;50.932;6.924;2023-11-21T06:58:05;48.60;;;22.17;;
18459;SDS011;9359;50.932;6.924;2023-11-21T07:00:37;46.67;;;21.73;;
18459;SDS011;9359;50.932;6.924;2023-11-21T07:03:07;61.50;;;22.33;;
18459;SDS011;9359;50.932;6.924;2023-11-21T07:05:36;51.17;;;23.93;;
18459;SDS011;9359;50.932;6.924;2023-11-21T07:08:04;50.40;;;23.87;;
18459;SDS011;9359;50.932;6.924;2023-11-21T07:10:35;52.77;;;23.57;;
18459;SDS011;9359;50.932;6.924;2023-11-21T07:13:04;56.60;;;23.83;;
18459;SDS011;9359;50.932;6.924;2023-11-21T07:15:32;51.17;;;23.23;;
18459;SDS011;9359;50.932;6.924;2023-11-21T07:18:01;49.23;;;23.97;;
18459;SDS011;9359;50.932;6.924;2023-11-21T07:20:31;55.20;;;24.73;;
18459;SDS011;9359;50.932;6.924;2023-11-21T07:23:00;49.23;;;22.67;;
18459;SDS011;9359;50.932;6.924;2023-11-21T07:25:31;52.03;;;22.77;;
18459;SDS011;9359;50.932;6.924;2023-11-21T07:28:01;42.73;;;21.37;;
18459;SDS011;9359;50.932;6.924;2023-11-21T07:30:31;42.43;;;20.50;;
18459;SDS011;9359;50.932;6.924;2023-11-21T07:32:59;45.27;;;22.67;;
18459;SDS011;9359;50.932;6.924;2023-11-21T07:35:28;51.43;;;21.60;;
18459;SDS011;9359;50.932;6.924;2023-11-21T07:37:58;43.97;;;21.00;;
18459;SDS011;9359;50.932;6.924;2023-11-21T07:40:27;46.53;;;22.17;;
18459;SDS011;9359;50.932;6.924;2023-11-21T07:42:55;53.57;;;23.77;;
18459;SDS011;9359;50.932;6.924;2023-11-21T07:45:24;51.87;;;22.20;;
18459;SDS011;9359;50.932;6.924;2023-11-21T07:47:53;56.00;;;23.60;;
18459;SDS011;9359;50.932;6.924;2023-11-21T07:50:23;56.10;;;24.13;;
18459;SDS011;9359;50.932;6.924;2023-11-21T07:52:54;52.87;;;24.47;;
18459;SDS011;9359;50.932;6.924;2023-11-21T07:55:25;56.13;;;25.07;;
18459;SDS011;9359;50.932;6.924;2023-11-21T07:57:53;67.03;;;29.47;;
18459;SDS011;9359;50.932;6.924;2023-11-21T08:00:23;73.73;;;31.67;;
18459;SDS011;9359;50.932;6.924;2023-11-21T08:02:55;58.57;;;27.07;;
18459;SDS011;9359;50.932;6.924;2023-11-21T08:05:24;44.07;;;22.73;;
18459;SDS011;9359;50.932;6.924;2023-11-21T08:07:53;45.07;;;20.53;;
18459;SDS011;9359;50.932;6.924;2023-11-21T08:10:22;44.03;;;20.90;;
18459;SDS011;9359;50.932;6.924;2023-11-21T08:12:52;45.03;;;20.07;;
18459;SDS011;9359;50.932;6.924;2023-11-21T08:15:21;43.70;;;20.33;;
18459;SDS011;9359;50.932;6.924;2023-11-21T08:17:49;45.03;;;20.10;;
18459;SDS011;9359;50.932;6.924;2023-11-21T08:20:18;38.70;;;18.03;;
18459;SDS011;9359;50.932;6.924;2023-11-21T08:22:48;56.23;;;24.17;;
18459;SDS011;9359;50.932;6.924;2023-11-21T08:25:17;41.23;;;19.93;;
18459;SDS011;9359;50.932;6.924;2023-11-21T08:27:46;38.27;;;16.47;;
18459;SDS011;9359;50.932;6.924;2023-11-21T08:30:16;30.17;;;14.70;;
18459;SDS011;9359;50.932;6.924;2023-11-21T08:32:44;32.20;;;15.73;;
18459;SDS011;9359;50.932;6.924;2023-11-21T08:35:13;40.13;;;18.20;;
18459;SDS011;9359;50.932;6.924;2023-11-21T08:37:41;47.13;;;19.13;;
18459;SDS011;9359;50.932;6.924;2023-11-21T08:40:12;39.97;;;19.47;;
18459;SDS011;9359;50.932;6.924;2023-11-21T08:42:42;38.73;;;18.77;;
18459;SDS011;9359;50.932;6.924;2023-11-21T08:45:11;43.23;;;17.20;;
18459;SDS011;9359;50.932;6.924;2023-11-21T08:47:41;37.07;;;18.33;;
18459;SDS011;9359;50.932;6.924;2023-11-21T08:50:11;42.73;;;19.90;;
18459;SDS011;9359;50.932;6.924;2023-11-21T08:52:42;40.60;;;19.73;;
18459;SDS011;9359;50.932;6.924;2023-11-21T08:55:12;35.83;;;17.43;;
18459;SDS011;9359;50.932;6.924;2023-11-21T08:57:41;37.03;;;17.60;;
18459;SDS011;9359;50.932;6.924;2023-11-21T09:00:12;44.93;;;20.57;;
18459;SDS011;9359;50.932;6.924;2023-11-21T09:02:44;40.47;;;20.40;;
18459;SDS011;9359;50.932;6.924;2023-11-21T09:05:13;47.27;;;21.03;;
18459;SDS011;9359;50.932;6.924;2023-11-21T09:07:42;48.90;;;23.40;;
18459;SDS011;9359;50.932;6.924;2023-11-21T09:10:11;46.60;;;22.27;;
18459;SDS011;9359;50.932;6.924;2023-11-21T09:12:40;47.83;;;21.90;;
18459;SDS011;9359;50.932;6.924;2023-11-21T09:15:09;47.37;;;23.00;;
18459;SDS011;9359;50.932;6.924;2023-11-21T09:17:39;54.27;;;24.47;;
18459;SDS011;9359;50.932;6.924;2023-11-21T09:20:10;53.60;;;22.73;;
18459;SDS011;9359;50.932;6.924;2023-11-21T09:22:40;43.07;;;20.23;;
18459;SDS011;9359;50.932;6.924;2023-11-21T09:25:11;44.13;;;20.73;;
18459;SDS011;9359;50.932;6.924;2023-11-21T09:27:50;43.27;;;18.47;;
18459;SDS011;9359;50.932;6.924;2023-11-21T09:30:18;36.30;;;19.10;;
18459;SDS011;9359;50.932;6.924;2023-11-21T09:32:47;42.43;;;19.20;;
18459;SDS011;9359;50.932;6.924;2023-11-21T09:35:17;43.67;;;20.83;;
18459;SDS011;9359;50.932;6.924;2023-11-21T09:37:46;41.07;;;19.37;;
18459;SDS011;9359;50.932;6.924;2023-11-21T09:40:14;40.77;;;19.03;;
18459;SDS011;9359;50.932;6.924;2023-11-21T09:42:44;31.00;;;15.17;;
18459;SDS011;9359;50.932;6.924;2023-11-21T09:45:15;34.63;;;16.30;;
18459;SDS011;9359;50.932;6.924;2023-11-21T09:47:45;33.40;;;15.57;;
18459;SDS011;9359;50.932;6.924;2023-11-21T09:50:22;32.60;;;15.23;;
18459;SDS011;9359;50.932;6.924;2023-11-21T09:52:55;30.47;;;15.10;;
18459;SDS011;9359;50.932;6.924;2023-11-21T09:55:26;32.93;;;15.33;;
18459;SDS011;9359;50.932;6.924;2023-11-21T09:57:57;27.83;;;13.53;;
18459;SDS011;9359;50.932;6.924;2023-11-21T10:00:26;30.23;;;13.70;;
18459;SDS011;9359;50.932;6.924;2023-11-21T10:02:56;28.60;;;13.73;;
18459;SDS011;9359;50.932;6.924;2023-11-21T10:05:28;27.03;;;13.10;;
18459;SDS011;9359;50.932;6.924;2023-11-21T10:07:59;26.73;;;12.30;;
18459;SDS011;9359;50.932;6.924;2023-11-21T10:10:28;24.50;;;12.40;;
18459;SDS011;9359;50.932;6.924;2023-11-21T10:13:00;25.83;;;11.40;;
18459;SDS011;9359;50.932;6.924;2023-11-21T10:15:31;28.40;;;13.97;;
18459;SDS011;9359;50.932;6.924;2023-11-21T10:18:02;29.60;;;13.70;;
18459;SDS011;9359;50.932;6.924;2023-11-21T10:20:33;30.87;;;15.37;;
18459;SDS011;9359;50.932;6.924;2023-11-21T10:23:03;31.87;;;15.90;;
18459;SDS011;9359;50.932;6.924;2023-11-21T10:25:33;29.87;;;15.17;;
18459;SDS011;9359;50.932;6.924;2023-11-21T10:28:03;32.80;;;15.30;;
18459;SDS011;9359;50.932;6.924;2023-11-21T10:30:32;31.73;;;15.07;;
18459;SDS011;9359;50.932;6.924;2023-11-21T10:33:02;30.83;;;15.30;;
18459;SDS011;9359;50.932;6.924;2023-11-21T10:38:29;33.13;;;17.07;;
18459;SDS011;9359;50.932;6.924;2023-11-21T10:41:03;39.33;;;17.83;;
18459;SDS011;9359;50.932;6.924;2023-11-21T10:43:33;37.27;;;17.13;;
18459;SDS011;9359;50.932;6.924;2023-11-21T10:46:01;34.07;;;15.93;;
18459;SDS011;9359;50.932;6.924;2023-11-21T10:48:30;39.90;;;17.03;;
18459;SDS011;9359;50.932;6.924;2023-11-21T10:51:01;43.83;;;17.17;;
18459;SDS011;9359;50.932;6.924;2023-11-21T10:53:39;38.17;;;16.60;;
18459;SDS011;9359;50.932;6.924;2023-11-21T10:56:13;30.27;;;14.70;;
18459;SDS011;9359;50.932;6.924;2023-11-21T10:58:46;28.67;;;15.40;;
18459;SDS011;9359;50.932;6.924;2023-11-21T11:01:14;28.40;;;14.20;;
18459;SDS011;9359;50.932;6.924;2023-11-21T11:03:47;31.43;;;14.53;;
18459;SDS011;9359;50.932;6.924;2023-11-21T11:06:15;29.83;;;14.30;;
18459;SDS011;9359;50.932;6.924;2023-11-21T11:08:46;28.77;;;13.80;;
18459;SDS011;9359;50.932;6.924;2023-11-21T11:11:14;30.40;;;14.47;;
18459;SDS011;9359;50.932;6.924;2023-11-21T11:13:44;33.23;;;15.37;;
18459;SDS011;9359;50.932;6.924;2023-11-21T11:16:13;33.03;;;15.23;;
18459;SDS011;9359;50.932;6.924;2023-11-21T11:18:42;34.37;;;14.90;;
18459;SDS011;9359;50.932;6.924;2023-11-21T11:21:16;33.53;;;14.93;;
18459;SDS011;9359;50.932;6.924;2023-11-21T11:23:53;30.37;;;15.47;;
18459;SDS011;9359;50.932;6.924;2023-11-21T11:26:28;35.30;;;16.07;;
18459;SDS011;9359;50.932;6.924;2023-11-21T11:29:03;33.23;;;15.83;;
18459;SDS011;9359;50.932;6.924;2023-11-21T11:31:39;34.80;;;15.40;;
18459;SDS011;9359;50.932;6.924;2023-11-21T11:34:11;32.13;;;14.47;;
18459;SDS011;9359;50.932;6.924;2023-11-21T11:36:48;33.23;;;16.77;;
18459;SDS011;9359;50.932;6.924;2023-11-21T11:42:14;39.47;;;17.23;;
18459;SDS011;9359;50.932;6.924;2023-11-21T11:44:46;37.93;;;18.20;;
18459;SDS011;9359;50.932;6.924;2023-11-21T11:47:19;38.50;;;19.60;;
18459;SDS011;9359;50.932;6.924;2023-11-21T11:49:58;41.40;;;20.17;;
18459;SDS011;9359;50.932;6.924;2023-11-21T11:52:37;46.30;;;20.60;;
18459;SDS011;9359;50.932;6.924;2023-11-21T11:55:06;44.50;;;21.70;;
18459;SDS011;9359;50.932;6.924;2023-11-21T11:57:39;48.80;;;21.90;;
18459;SDS011;9359;50.932;6.924;2023-11-21T12:00:08;49.37;;;22.53;;
18459;SDS011;9359;50.932;6.924;2023-11-21T12:02:36;47.87;;;22.63;;
18459;SDS011;9359;50.932;6.924;2023-11-21T12:05:08;50.23;;;23.40;;
18459;SDS011;9359;50.932;6.924;2023-11-21T12:07:45;50.20;;;24.17;;
18459;SDS011;9359;50.932;6.924;2023-11-21T12:10:14;52.27;;;24.37;;
18459;SDS011;9359;50.932;6.924;2023-11-21T12:12:46;60.83;;;24.90;;
18459;SDS011;9359;50.932;6.924;2023-11-21T12:15:15;53.70;;;25.13;;
18459;SDS011;9359;50.932;6.924;2023-11-21T12:17:44;56.83;;;24.57;;
18459;SDS011;9359;50.932;6.924;2023-11-21T12:20:14;56.13;;;25.17;;
18459;SDS011;9359;50.932;6.924;2023-11-21T12:22:44;49.53;;;24.33;;
18459;SDS011;9359;50.932;6.924;2023-11-21T12:25:15;55.70;;;25.87;;
18459;SDS011;9359;50.932;6.924;2023-11-21T12:27:46;53.80;;;24.90;;
18459;SDS011;9359;50.932;6.924;2023-11-21T12:30:15;53.93;;;25.37;;
18459;SDS011;9359;50.932;6.924;2023-11-21T12:32:44;51.90;;;24.13;;
18459;SDS011;9359;50.932;6.924;2023-11-21T12:35:13;54.78;;;26.25;;
18459;SDS011;9359;50.932;6.924;2023-11-21T12:37:45;48.67;;;23.83;;
18459;SDS011;9359;50.932;6.924;2023-11-21T12:40:14;52.43;;;25.60;;
18459;SDS011;9359;50.932;6.924;2023-11-21T12:42:43;54.13;;;24.60;;
18459;SDS011;9359;50.932;6.924;2023-11-21T12:48:05;60.27;;;26.90;;
18459;SDS011;9359;50.932;6.924;2023-11-21T12:50:36;55.63;;;25.77;;
18459;SDS011;9359;50.932;6.924;2023-11-21T12:53:06;60.00;;;25.70;;
18459;SDS011;9359;50.932;6.924;2023-11-21T12:55:35;65.13;;;27.00;;
18459;SDS011;9359;50.932;6.924;2023-11-21T12:58:09;60.63;;;30.13;;
18459;SDS011;9359;50.932;6.924;2023-11-21T13:00:39;61.67;;;28.57;;
18459;SDS011;9359;50.932;6.924;2023-11-21T13:03:10;65.70;;;28.90;;
18459;SDS011;9359;50.932;6.924;2023-11-21T13:05:42;66.77;;;30.63;;
18459;SDS011;9359;50.932;6.924;2023-11-21T13:08:11;77.60;;;30.70;;
18459;SDS011;9359;50.932;6.924;2023-11-21T13:10:45;67.70;;;30.57;;
18459;SDS011;9359;50.932;6.924;2023-11-21T13:13:14;63.27;;;28.47;;
18459;SDS011;9359;50.932;6.924;2023-11-21T13:15:47;64.47;;;28.27;;
18459;SDS011;9359;50.932;6.924;2023-11-21T13:18:17;67.83;;;29.17;;
18459;SDS011;9359;50.932;6.924;2023-11-21T13:20:50;57.67;;;26.07;;
18459;SDS011;9359;50.932;6.924;2023-11-21T13:23:22;62.33;;;27.53;;
18459;SDS011;9359;50.932;6.924;2023-11-21T13:25:51;56.87;;;26.17;;
18459;SDS011;9359;50.932;6.924;2023-11-21T13:28:20;66.17;;;27.37;;
18459;SDS011;9359;50.932;6.924;2023-11-21T13:30:51;76.10;;;28.47;;
18459;SDS011;9359;50.932;6.924;2023-11-21T13:33:21;78.20;;;31.20;;
18459;SDS011;9359;50.932;6.924;2023-11-21T13:35:53;81.63;;;32.57;;
18459;SDS011;9359;50.932;6.924;2023-11-21T13:38:22;117.27;;;40.13;;
18459;SDS011;9359;50.932;6.924;2023-11-21T13:40:57;139.67;;;46.03;;
18459;SDS011;9359;50.932;6.924;2023-11-21T13:43:26;150.03;;;54.17;;
18459;SDS011;9359;50.932;6.924;2023-11-21T13:45:55;149.87;;;58.23;;
18459;SDS011;9359;50.932;6.924;2023-11-21T13:48:30;149.17;;;62.10;;
18459;SDS011;9359;50.932;6.924;2023-11-21T13:51:06;160.60;;;63.33;;
18459;SDS011;9359;50.932;6.924;2023-11-21T13:53:44;159.00;;;66.63;;
18459;SDS011;9359;50.932;6.924;2023-11-21T13:56:14;160.50;;;68.07;;
18459;SDS011;9359;50.932;6.924;2023-11-21T13:58:45;167.10;;;69.73;;
18459;SDS011;9359;50.932;6.924;2023-11-21T14:01:17;153.60;;;67.33;;
18459;SDS011;9359;50.932;6.924;2023-11-21T14:04:07;165.67;;;73.63;;
18459;SDS011;9359;50.932;6.924;2023-11-21T14:06:45;171.03;;;73.30;;
18459;SDS011;9359;50.932;6.924;2023-11-21T14:09:17;165.20;;;74.37;;
18459;SDS011;9359;50.932;6.924;2023-11-21T14:11:50;148.83;;;66.17;;
18459;SDS011;9359;50.932;6.924;2023-11-21T14:14:21;130.47;;;58.40;;
18459;SDS011;9359;50.932;6.924;2023-11-21T14:16:50;126.70;;;54.50;;
18459;SDS011;9359;50.932;6.924;2023-11-21T14:19:23;116.63;;;53.13;;
18459;SDS011;9359;50.932;6.924;2023-11-21T14:21:57;103.43;;;48.30;;
18459;SDS011;9359;50.932;6.924;2023-11-21T14:24:25;100.27;;;47.70;;
18459;SDS011;9359;50.932;6.924;2023-11-21T14:26:54;109.77;;;46.60;;
18459;SDS011;9359;50.932;6.924;2023-11-21T14:29:23;95.47;;;43.53;;
18459;SDS011;9359;50.932;6.924;2023-11-21T14:31:55;96.27;;;42.77;;
18459;SDS011;9359;50.932;6.924;2023-11-21T14:34:26;89.93;;;40.90;;
18459;SDS011;9359;50.932;6.924;2023-11-21T14:36:55;91.83;;;41.77;;
18459;SDS011;9359;50.932;6.924;2023-11-21T14:39:28;93.80;;;39.60;;
18459;SDS011;9359;50.932;6.924;2023-11-21T14:42:00;89.47;;;41.67;;
18459;SDS011;9359;50.932;6.924;2023-11-21T14:44:33;84.50;;;40.53;;
18459;SDS011;9359;50.932;6.924;2023-11-21T14:47:07;95.13;;;40.87;;
18459;SDS011;9359;50.932;6.924;2023-11-21T14:49:42;94.33;;;41.80;;
18459;SDS011;9359;50.932;6.924;2023-11-21T14:52:30;92.67;;;43.83;;
18459;SDS011;9359;50.932;6.924;2023-11-21T14:55:10;96.90;;;44.63;;
18459;SDS011;9359;50.932;6.924;2023-11-21T14:57:51;95.40;;;44.57;;
18459;SDS011;9359;50.932;6.924;2023-11-21T15:00:20;94.00;;;41.77;;
18459;SDS011;9359;50.932;6.924;2023-11-21T15:03:05;100.33;;;43.40;;